Wetterdaten: Freitag, 19.08.2011
Datum Zeit Temp. A. Feuchte A. Luftdruck Regen Wind Richtung Richtung Sonnenschein UV Solar Windben
19.08.2011 00:00 18,2 C 92 % 1009,8 hPa 0,3 mm 4,8 km/h (1 Bft) O-SO 112 0 min 0 UV-I 0 W/m 11,3 km/h (2 Bft)
19.08.2011 00:10 18,1 C 93 % 1010,1 hPa 0,0 mm 1,6 km/h (1 Bft) SO 135 0 min 0 UV-I 0 W/m 11,3 km/h (2 Bft)
19.08.2011 00:20 18,1 C 93 % 1010,2 hPa 0,3 mm 3,2 km/h (1 Bft) O-SO 112 0 min 0 UV-I 0 W/m 11,3 km/h (2 Bft)
19.08.2011 00:30 17,9 C 92 % 1010,1 hPa 0,3 mm 4,8 km/h (1 Bft) S 180 0 min 0 UV-I 0 W/m 16,1 km/h (3 Bft)
19.08.2011 00:40 17,8 C 93 % 1009,6 hPa 0,0 mm 6,4 km/h (2 Bft) SO 135 0 min 0 UV-I 0 W/m 22,5 km/h (4 Bft)
19.08.2011 00:50 17,7 C 93 % 1009,5 hPa 0,0 mm 8,0 km/h (2 Bft) S-SO 157 0 min 0 UV-I 0 W/m 22,5 km/h (4 Bft)
19.08.2011 01:00 17,7 C 93 % 1009,3 hPa 0,0 mm 3,2 km/h (1 Bft) SO 135 0 min 0 UV-I 0 W/m 19,3 km/h (3 Bft)
19.08.2011 01:10 17,8 C 92 % 1009,0 hPa 0,0 mm 3,2 km/h (1 Bft) SO 135 0 min 0 UV-I 0 W/m 14,5 km/h (3 Bft)
19.08.2011 01:20 17,9 C 92 % 1008,6 hPa 0,0 mm 3,2 km/h (1 Bft) S-SO 157 0 min 0 UV-I 0 W/m 14,5 km/h (3 Bft)
19.08.2011 01:30 17,9 C 92 % 1008,3 hPa 0,0 mm 3,2 km/h (1 Bft) S-SO 157 0 min 0 UV-I 0 W/m 14,5 km/h (3 Bft)
19.08.2011 01:40 18,1 C 91 % 1008,4 hPa 0,0 mm 4,8 km/h (1 Bft) S-SW 202 0 min 0 UV-I 0 W/m 17,7 km/h (3 Bft)
19.08.2011 01:50 18,2 C 91 % 1008,4 hPa 0,0 mm 1,6 km/h (1 Bft) S-SW 202 0 min 0 UV-I 0 W/m 9,7 km/h (2 Bft)
19.08.2011 02:00 18,4 C 90 % 1008,2 hPa 0,0 mm 3,2 km/h (1 Bft) S 180 0 min 0 UV-I 0 W/m 16,1 km/h (3 Bft)
19.08.2011 02:10 18,8 C 88 % 1008,1 hPa 0,0 mm 1,6 km/h (1 Bft) SW 225 0 min 0 UV-I 0 W/m 6,4 km/h (2 Bft)
19.08.2011 02:20 19,1 C 87 % 1007,9 hPa 0,0 mm 1,6 km/h (1 Bft) S-SW 202 0 min 0 UV-I 0 W/m 6,4 km/h (2 Bft)
19.08.2011 02:30 19,1 C 87 % 1008,2 hPa 0,0 mm 0,0 km/h (0 Bft) S-SW 202 0 min 0 UV-I 0 W/m 4,8 km/h (1 Bft)
19.08.2011 02:40 19,2 C 87 % 1008,3 hPa 0,0 mm 3,2 km/h (1 Bft) S-SW 202 0 min 0 UV-I 0 W/m 17,7 km/h (3 Bft)
19.08.2011 02:50 19,4 C 86 % 1008,3 hPa 0,0 mm 4,8 km/h (1 Bft) S 180 0 min 0 UV-I 0 W/m 14,5 km/h (3 Bft)
19.08.2011 03:00 19,6 C 85 % 1008,2 hPa 0,0 mm 3,2 km/h (1 Bft) S-SW 202 0 min 0 UV-I 0 W/m 16,1 km/h (3 Bft)
19.08.2011 03:10 19,7 C 84 % 1008,0 hPa 0,0 mm 1,6 km/h (1 Bft) W-SW 247 0 min 0 UV-I 0 W/m 8,0 km/h (2 Bft)
19.08.2011 03:20 19,8 C 83 % 1008,1 hPa 0,0 mm 1,6 km/h (1 Bft) W-SW 247 0 min 0 UV-I 0 W/m 8,0 km/h (2 Bft)
19.08.2011 03:30 19,8 C 83 % 1008,0 hPa 0,0 mm 1,6 km/h (1 Bft) SW 225 0 min 0 UV-I 0 W/m 9,7 km/h (2 Bft)
19.08.2011 03:40 19,9 C 83 % 1007,9 hPa 0,0 mm 1,6 km/h (1 Bft) SW 225 0 min 0 UV-I 0 W/m 8,0 km/h (2 Bft)
19.08.2011 03:50 19,8 C 85 % 1008,2 hPa 0,0 mm 0,0 km/h (0 Bft) SW 225 0 min 0 UV-I 0 W/m 6,4 km/h (2 Bft)
19.08.2011 04:00 19,8 C 85 % 1008,1 hPa 0,0 mm 0,0 km/h (0 Bft) SW 225 0 min 0 UV-I 0 W/m 4,8 km/h (1 Bft)
19.08.2011 04:10 19,9 C 85 % 1008,3 hPa 0,0 mm 0,0 km/h (0 Bft) SW 225 0 min 0 UV-I 0 W/m 3,2 km/h (1 Bft)
19.08.2011 04:20 19,9 C 86 % 1008,2 hPa 0,0 mm 1,6 km/h (1 Bft) W 270 0 min 0 UV-I 0 W/m 9,7 km/h (2 Bft)
19.08.2011 04:30 19,9 C 86 % 1008,3 hPa 0,0 mm 0,0 km/h (0 Bft) W 270 0 min 0 UV-I 0 W/m 3,2 km/h (1 Bft)
19.08.2011 04:40 19,8 C 87 % 1008,3 hPa 0,0 mm 0,0 km/h (0 Bft) W 270 0 min 0 UV-I 0 W/m 1,6 km/h (1 Bft)
19.08.2011 04:50 19,7 C 88 % 1008,2 hPa 0,0 mm 0,0 km/h (0 Bft) N 0 0 min 0 UV-I 0 W/m 0,0 km/h (0 Bft)
19.08.2011 05:00 19,5 C 89 % 1008,3 hPa 0,0 mm 0,0 km/h (0 Bft) W 270 0 min 0 UV-I 0 W/m 3,2 km/h (1 Bft)
19.08.2011 05:10 19,6 C 88 % 1008,7 hPa 0,0 mm 1,6 km/h (1 Bft) W 270 0 min 0 UV-I 0 W/m 11,3 km/h (2 Bft)
19.08.2011 05:20 19,5 C 88 % 1008,7 hPa 0,0 mm 0,0 km/h (0 Bft) NW 315 0 min 0 UV-I 0 W/m 4,8 km/h (1 Bft)
19.08.2011 05:30 19,3 C 88 % 1008,6 hPa 0,0 mm 0,0 km/h (0 Bft) NW 315 0 min 0 UV-I 0 W/m 6,4 km/h (2 Bft)
19.08.2011 05:40 19,2 C 89 % 1008,6 hPa 0,0 mm 0,0 km/h (0 Bft) NW 315 0 min 0 UV-I 0 W/m 3,2 km/h (1 Bft)
19.08.2011 05:50 19,2 C 90 % 1008,5 hPa 0,0 mm 0,0 km/h (0 Bft) NW 315 0 min 0 UV-I 0 W/m 3,2 km/h (1 Bft)
19.08.2011 06:00 19,2 C 90 % 1008,8 hPa 0,0 mm 0,0 km/h (0 Bft) NW 315 0 min 0 UV-I 0 W/m 4,8 km/h (1 Bft)
19.08.2011 06:10 19,2 C 90 % 1008,9 hPa 0,0 mm 0,0 km/h (0 Bft) NW 315 0 min 0 UV-I 0 W/m 3,2 km/h (1 Bft)
19.08.2011 06:20 19,3 C 90 % 1008,9 hPa 0,0 mm 0,0 km/h (0 Bft) NW 315 0 min 0 UV-I 7 W/m 4,8 km/h (1 Bft)
19.08.2011 06:30 19,3 C 90 % 1009,0 hPa 0,0 mm 1,6 km/h (1 Bft) NW 315 10 min 0 UV-I 14 W/m 9,7 km/h (2 Bft)
19.08.2011 06:40 19,4 C 90 % 1009,0 hPa 0,0 mm 1,6 km/h (1 Bft) W-NW 292 10 min 0 UV-I 28 W/m 6,4 km/h (2 Bft)
19.08.2011 06:50 19,6 C 90 % 1009,4 hPa 0,8 mm 4,8 km/h (1 Bft) W-NW 292 0 min 0 UV-I 9 W/m 16,1 km/h (3 Bft)
19.08.2011 07:00 19,6 C 91 % 1009,5 hPa 0,3 mm 6,4 km/h (2 Bft) W 270 0 min 0 UV-I 0 W/m 24,1 km/h (4 Bft)
19.08.2011 07:10 19,4 C 91 % 1009,5 hPa 0,0 mm 3,2 km/h (1 Bft) W-SW 247 0 min 0 UV-I 0 W/m 14,5 km/h (3 Bft)
19.08.2011 07:20 19,3 C 91 % 1009,7 hPa 0,3 mm 6,4 km/h (2 Bft) W 270 0 min 0 UV-I 0 W/m 20,9 km/h (4 Bft)
19.08.2011 07:30 19,1 C 91 % 1009,8 hPa 0,3 mm 6,4 km/h (2 Bft) W 270 0 min 0 UV-I 5 W/m 20,9 km/h (4 Bft)
19.08.2011 07:40 18,9 C 91 % 1010,1 hPa 0,0 mm 6,4 km/h (2 Bft) W 270 0 min 0 UV-I 28 W/m 20,9 km/h (4 Bft)
19.08.2011 07:50 18,9 C 92 % 1010,2 hPa 0,3 mm 4,8 km/h (1 Bft) W 270 0 min 0 UV-I 16 W/m 14,5 km/h (3 Bft)
19.08.2011 08:00 18,8 C 92 % 1010,4 hPa 0,0 mm 6,4 km/h (2 Bft) W 270 0 min 0 UV-I 11 W/m 17,7 km/h (3 Bft)
19.08.2011 08:10 18,7 C 92 % 1010,5 hPa 0,0 mm 5,7 km/h (1 Bft) W 271 0 min 0 UV-I 7 W/m 16,1 km/h (3 Bft)
19.08.2011 08:20 18,6 C 92 % 1010,5 hPa 0,0 mm 5,0 km/h (1 Bft) W 281 0 min 0 UV-I 8 W/m 16,1 km/h (3 Bft)
19.08.2011 08:30 18,6 C 92 % 1010,5 hPa 0,0 mm 4,8 km/h (1 Bft) W 265 0 min 0 UV-I 29 W/m 16,1 km/h (3 Bft)
19.08.2011 08:40 18,7 C 92 % 1010,6 hPa 0,0 mm 3,2 km/h (1 Bft) W-NW 292 0 min 0 UV-I 49 W/m 14,5 km/h (3 Bft)
19.08.2011 08:50 18,7 C 92 % 1010,6 hPa 0,0 mm 1,6 km/h (1 Bft) W-NW 292 0 min 0 UV-I 19 W/m 8,0 km/h (2 Bft)
19.08.2011 09:00 18,5 C 92 % 1010,9 hPa 0,3 mm 6,4 km/h (2 Bft) W 270 0 min 0 UV-I 28 W/m 17,7 km/h (3 Bft)
19.08.2011 09:10 18,3 C 92 % 1011,1 hPa 0,0 mm 4,8 km/h (1 Bft) W 270 0 min 1 UV-I 62 W/m 19,3 km/h (3 Bft)
19.08.2011 09:20 18,3 C 92 % 1011,2 hPa 0,0 mm 4,8 km/h (1 Bft) W 270 0 min 1 UV-I 65 W/m 11,3 km/h (2 Bft)
19.08.2011 09:30 18,2 C 92 % 1011,4 hPa 0,0 mm 6,4 km/h (2 Bft) W-NW 292 0 min 1 UV-I 93 W/m 16,1 km/h (3 Bft)
19.08.2011 09:40 18,2 C 92 % 1011,5 hPa 0,0 mm 3,2 km/h (1 Bft) W 270 0 min 1 UV-I 114 W/m 11,3 km/h (2 Bft)
19.08.2011 09:50 18,3 C 92 % 1011,8 hPa 0,3 mm 4,8 km/h (1 Bft) W 270 0 min 1 UV-I 137 W/m 16,1 km/h (3 Bft)
19.08.2011 10:00 18,3 C 92 % 1011,8 hPa 0,0 mm 4,8 km/h (1 Bft) W 270 0 min 1 UV-I 132 W/m 20,9 km/h (4 Bft)
19.08.2011 10:10 18,2 C 92 % 1011,9 hPa 0,0 mm 6,4 km/h (2 Bft) W 270 0 min 1 UV-I 91 W/m 19,3 km/h (3 Bft)
19.08.2011 10:20 18,1 C 91 % 1012,4 hPa 0,0 mm 8,0 km/h (2 Bft) W-NW 292 0 min 0 UV-I 54 W/m 22,5 km/h (4 Bft)
19.08.2011 10:30 17,5 C 91 % 1012,7 hPa 0,0 mm 8,0 km/h (2 Bft) W-NW 292 0 min 1 UV-I 167 W/m 20,9 km/h (4 Bft)
19.08.2011 10:40 17,3 C 91 % 1012,9 hPa 0,0 mm 6,4 km/h (2 Bft) W-NW 292 0 min 2 UV-I 260 W/m 22,5 km/h (4 Bft)
19.08.2011 10:50 17,3 C 90 % 1013,0 hPa 0,0 mm 6,4 km/h (2 Bft) W-NW 292 0 min 3 UV-I 330 W/m 20,9 km/h (4 Bft)
19.08.2011 11:00 17,4 C 87 % 1013,1 hPa 0,0 mm 8,0 km/h (2 Bft) W-NW 292 0 min 4 UV-I 330 W/m 22,5 km/h (4 Bft)
19.08.2011 11:10 17,3 C 87 % 1013,4 hPa 0,0 mm 8,0 km/h (2 Bft) W-NW 292 0 min 2 UV-I 207 W/m 22,5 km/h (4 Bft)
19.08.2011 11:20 17,3 C 86 % 1013,7 hPa 0,0 mm 6,4 km/h (2 Bft) W-NW 292 0 min 2 UV-I 221 W/m 24,1 km/h (4 Bft)
19.08.2011 11:30 17,3 C 85 % 1013,7 hPa 0,0 mm 6,4 km/h (2 Bft) NW 315 0 min 3 UV-I 302 W/m 20,9 km/h (4 Bft)
19.08.2011 11:40 17,4 C 84 % 1013,9 hPa 0,0 mm 8,0 km/h (2 Bft) W 270 0 min 2 UV-I 214 W/m 22,5 km/h (4 Bft)
19.08.2011 11:50 17,3 C 85 % 1014,0 hPa 0,0 mm 4,8 km/h (1 Bft) W-NW 292 0 min 2 UV-I 153 W/m 14,5 km/h (3 Bft)
19.08.2011 12:00 17,3 C 85 % 1014,0 hPa 0,0 mm 4,8 km/h (1 Bft) W-NW 292 0 min 2 UV-I 185 W/m 12,9 km/h (3 Bft)
19.08.2011 12:10 17,4 C 83 % 1014,3 hPa 0,0 mm 6,4 km/h (2 Bft) W-NW 292 0 min 4 UV-I 320 W/m 22,5 km/h (4 Bft)
19.08.2011 12:20 17,5 C 83 % 1014,4 hPa 0,0 mm 8,0 km/h (2 Bft) W 270 0 min 2 UV-I 204 W/m 22,5 km/h (4 Bft)
19.08.2011 12:30 17,6 C 82 % 1014,5 hPa 0,0 mm 6,4 km/h (2 Bft) W-SW 247 0 min 2 UV-I 195 W/m 16,1 km/h (3 Bft)
19.08.2011 12:40 17,6 C 82 % 1014,5 hPa 0,0 mm 4,8 km/h (1 Bft) W 270 0 min 2 UV-I 141 W/m 16,1 km/h (3 Bft)
19.08.2011 12:50 17,4 C 82 % 1014,8 hPa 0,0 mm 8,0 km/h (2 Bft) W-NW 292 0 min 1 UV-I 123 W/m 24,1 km/h (4 Bft)
19.08.2011 13:00 17,2 C 83 % 1015,2 hPa 0,0 mm 6,4 km/h (2 Bft) W-NW 292 0 min 1 UV-I 130 W/m 16,1 km/h (3 Bft)
19.08.2011 13:10 17,2 C 83 % 1015,2 hPa 0,0 mm 4,8 km/h (1 Bft) W-NW 292 0 min 2 UV-I 186 W/m 16,1 km/h (3 Bft)
19.08.2011 13:20 17,4 C 82 % 1015,2 hPa 0,0 mm 6,4 km/h (2 Bft) W 270 0 min 4 UV-I 378 W/m 20,9 km/h (4 Bft)
19.08.2011 13:30 17,7 C 80 % 1015,3 hPa 0,0 mm 8,0 km/h (2 Bft) W-NW 292 0 min 2 UV-I 204 W/m 20,9 km/h (4 Bft)
19.08.2011 13:40 17,6 C 81 % 1015,6 hPa 0,0 mm 8,0 km/h (2 Bft) W 270 0 min 1 UV-I 70 W/m 20,9 km/h (4 Bft)
19.08.2011 13:50 17,2 C 83 % 1015,8 hPa 0,0 mm 6,4 km/h (2 Bft) W-NW 292 0 min 2 UV-I 200 W/m 24,1 km/h (4 Bft)
19.08.2011 14:00 17,1 C 83 % 1015,9 hPa 0,0 mm 6,4 km/h (2 Bft) W-NW 292 0 min 1 UV-I 98 W/m 17,7 km/h (3 Bft)
19.08.2011 14:10 16,8 C 82 % 1016,1 hPa 0,0 mm 8,0 km/h (2 Bft) W-NW 292 0 min 1 UV-I 63 W/m 22,5 km/h (4 Bft)
19.08.2011 14:20 16,6 C 83 % 1016,2 hPa 0,0 mm 4,8 km/h (1 Bft) W-NW 292 0 min 2 UV-I 174 W/m 17,7 km/h (3 Bft)
19.08.2011 14:30 16,7 C 80 % 1016,3 hPa 0,0 mm 6,4 km/h (2 Bft) W-NW 292 0 min 2 UV-I 214 W/m 16,1 km/h (3 Bft)
19.08.2011 14:40 17,3 C 78 % 1016,3 hPa 0,0 mm 4,8 km/h (1 Bft) W 270 0 min 4 UV-I 404 W/m 16,1 km/h (3 Bft)
19.08.2011 14:50 17,8 C 77 % 1016,4 hPa 0,0 mm 6,4 km/h (2 Bft) W 270 0 min 5 UV-I 294 W/m 20,9 km/h (4 Bft)
19.08.2011 15:00 18,2 C 74 % 1016,4 hPa 0,0 mm 6,4 km/h (2 Bft) W 270 10 min 6 UV-I 863 W/m 16,1 km/h (3 Bft)
19.08.2011 15:10 19,4 C 68 % 1016,3 hPa 0,0 mm 8,0 km/h (2 Bft) W 270 10 min 6 UV-I 828 W/m 24,1 km/h (4 Bft)
19.08.2011 15:20 20,0 C 66 % 1016,2 hPa 0,0 mm 8,0 km/h (2 Bft) W 270 10 min 6 UV-I 861 W/m 22,5 km/h (4 Bft)
19.08.2011 15:30 20,4 C 65 % 1016,4 hPa 0,0 mm 8,0 km/h (2 Bft) W 270 10 min 5 UV-I 960 W/m 19,3 km/h (3 Bft)
19.08.2011 15:40 20,3 C 64 % 1016,4 hPa 0,0 mm 11,3 km/h (2 Bft) W 270 10 min 5 UV-I 886 W/m 24,1 km/h (4 Bft)
19.08.2011 15:50 19,5 C 67 % 1016,5 hPa 0,0 mm 9,7 km/h (2 Bft) W 270 0 min 2 UV-I 200 W/m 24,1 km/h (4 Bft)
19.08.2011 16:00 19,2 C 66 % 1016,7 hPa 0,0 mm 8,1 km/h (2 Bft) W-NW 290 0 min 2 UV-I 237 W/m 19,3 km/h (3 Bft)
19.08.2011 16:10 19,2 C 67 % 1016,7 hPa 0,0 mm 6,4 km/h (2 Bft) W-NW 292 0 min 3 UV-I 243 W/m 22,5 km/h (4 Bft)
19.08.2011 16:20 19,6 C 65 % 1016,9 hPa 0,0 mm 4,8 km/h (1 Bft) W 270 10 min 4 UV-I 666 W/m 25,7 km/h (4 Bft)
19.08.2011 16:30 19,9 C 64 % 1017,0 hPa 0,0 mm 8,0 km/h (2 Bft) W 270 10 min 4 UV-I 624 W/m 22,5 km/h (4 Bft)
19.08.2011 16:40 19,6 C 64 % 1017,1 hPa 0,0 mm 8,0 km/h (2 Bft) W 270 10 min 3 UV-I 617 W/m 22,5 km/h (4 Bft)
19.08.2011 16:50 20,0 C 62 % 1017,0 hPa 0,0 mm 9,7 km/h (2 Bft) W 270 10 min 3 UV-I 603 W/m 20,9 km/h (4 Bft)
19.08.2011 17:00 20,2 C 62 % 1017,0 hPa 0,0 mm 8,0 km/h (2 Bft) W 270 10 min 3 UV-I 575 W/m 20,9 km/h (4 Bft)
19.08.2011 17:10 20,3 C 59 % 1017,2 hPa 0,0 mm 11,3 km/h (2 Bft) W 270 10 min 3 UV-I 548 W/m 30,6 km/h (5 Bft)
19.08.2011 17:20 20,2 C 61 % 1017,3 hPa 0,0 mm 8,0 km/h (2 Bft) W 270 10 min 2 UV-I 559 W/m 19,3 km/h (3 Bft)
19.08.2011 17:30 19,9 C 63 % 1017,4 hPa 0,0 mm 9,7 km/h (2 Bft) W 270 0 min 2 UV-I 218 W/m 22,5 km/h (4 Bft)
19.08.2011 17:40 19,7 C 63 % 1017,4 hPa 0,0 mm 6,4 km/h (2 Bft) W 270 10 min 2 UV-I 522 W/m 16,1 km/h (3 Bft)
19.08.2011 17:50 19,9 C 63 % 1017,4 hPa 0,0 mm 6,4 km/h (2 Bft) W 270 10 min 2 UV-I 454 W/m 17,7 km/h (3 Bft)
19.08.2011 18:00 19,8 C 64 % 1017,3 hPa 0,0 mm 6,4 km/h (2 Bft) W 270 10 min 2 UV-I 425 W/m 17,7 km/h (3 Bft)
19.08.2011 18:10 20,0 C 61 % 1017,5 hPa 0,0 mm 9,7 km/h (2 Bft) W 270 10 min 1 UV-I 385 W/m 22,5 km/h (4 Bft)
19.08.2011 18:20 19,8 C 62 % 1017,5 hPa 0,0 mm 8,0 km/h (2 Bft) W 270 10 min 1 UV-I 329 W/m 22,5 km/h (4 Bft)
19.08.2011 18:30 19,8 C 61 % 1017,7 hPa 0,0 mm 8,0 km/h (2 Bft) W 270 10 min 1 UV-I 325 W/m 19,3 km/h (3 Bft)
19.08.2011 18:40 19,9 C 63 % 1017,8 hPa 0,0 mm 4,8 km/h (1 Bft) W-NW 292 10 min 1 UV-I 295 W/m 19,3 km/h (3 Bft)
19.08.2011 18:50 19,9 C 62 % 1018,1 hPa 0,0 mm 6,4 km/h (2 Bft) W-SW 247 10 min 1 UV-I 311 W/m 17,7 km/h (3 Bft)
19.08.2011 19:00 19,6 C 63 % 1018,0 hPa 0,0 mm 6,4 km/h (2 Bft) W 270 10 min 1 UV-I 241 W/m 19,3 km/h (3 Bft)
19.08.2011 19:10 19,1 C 64 % 1018,1 hPa 0,0 mm 3,2 km/h (1 Bft) W 270 10 min 1 UV-I 197 W/m 14,5 km/h (3 Bft)
19.08.2011 19:20 19,0 C 64 % 1018,2 hPa 0,0 mm 1,6 km/h (1 Bft) W 270 10 min 1 UV-I 167 W/m 9,7 km/h (2 Bft)
19.08.2011 19:30 18,8 C 63 % 1018,3 hPa 0,0 mm 4,8 km/h (1 Bft) W-NW 292 10 min 0 UV-I 114 W/m 19,3 km/h (3 Bft)
19.08.2011 19:40 18,5 C 64 % 1018,4 hPa 0,0 mm 3,2 km/h (1 Bft) W 270 10 min 0 UV-I 86 W/m 16,1 km/h (3 Bft)
19.08.2011 19:50 18,5 C 64 % 1018,5 hPa 0,0 mm 4,8 km/h (1 Bft) W 270 10 min 0 UV-I 77 W/m 11,3 km/h (2 Bft)
19.08.2011 20:00 18,4 C 65 % 1018,5 hPa 0,0 mm 3,2 km/h (1 Bft) W 270 10 min 0 UV-I 76 W/m 11,3 km/h (2 Bft)
19.08.2011 20:10 18,3 C 66 % 1018,6 hPa 0,0 mm 1,6 km/h (1 Bft) W 270 0 min 0 UV-I 26 W/m 11,3 km/h (2 Bft)
19.08.2011 20:20 17,9 C 68 % 1018,6 hPa 0,0 mm 0,0 km/h (0 Bft) W 270 0 min 0 UV-I 9 W/m 3,2 km/h (1 Bft)
19.08.2011 20:30 17,5 C 70 % 1018,6 hPa 0,0 mm 0,0 km/h (0 Bft) W 270 0 min 0 UV-I 7 W/m 1,6 km/h (1 Bft)
19.08.2011 20:40 17,1 C 72 % 1018,7 hPa 0,0 mm 0,0 km/h (0 Bft) W 270 0 min 0 UV-I 7 W/m 1,6 km/h (1 Bft)
19.08.2011 20:50 16,8 C 72 % 1018,9 hPa 0,0 mm 0,0 km/h (0 Bft) W 270 0 min 0 UV-I 0 W/m 3,2 km/h (1 Bft)
19.08.2011 21:00 16,6 C 73 % 1018,9 hPa 0,0 mm 0,0 km/h (0 Bft) W 270 0 min 0 UV-I 0 W/m 3,2 km/h (1 Bft)
19.08.2011 21:10 16,4 C 74 % 1019,0 hPa 0,0 mm 0,0 km/h (0 Bft) W 270 0 min 0 UV-I 0 W/m 3,2 km/h (1 Bft)
19.08.2011 21:20 16,2 C 74 % 1019,0 hPa 0,0 mm 0,0 km/h (0 Bft) W 270 0 min 0 UV-I 0 W/m 1,6 km/h (1 Bft)
19.08.2011 21:30 16,0 C 75 % 1019,3 hPa 0,0 mm 0,0 km/h (0 Bft) W 270 0 min 0 UV-I 0 W/m 1,6 km/h (1 Bft)
19.08.2011 21:40 15,7 C 78 % 1019,4 hPa 0,0 mm 0,0 km/h (0 Bft) N 0 0 min 0 UV-I 0 W/m 0,0 km/h (0 Bft)
19.08.2011 21:50 15,4 C 80 % 1019,5 hPa 0,0 mm 0,0 km/h (0 Bft) N 0 0 min 0 UV-I 0 W/m 0,0 km/h (0 Bft)
19.08.2011 22:00 15,2 C 79 % 1019,5 hPa 0,0 mm 0,0 km/h (0 Bft) W 270 0 min 0 UV-I 0 W/m 1,6 km/h (1 Bft)
19.08.2011 22:10 15,2 C 79 % 1019,6 hPa 0,0 mm 0,0 km/h (0 Bft) N 0 0 min 0 UV-I 0 W/m 0,0 km/h (0 Bft)
19.08.2011 22:20 15,1 C 80 % 1019,7 hPa 0,0 mm 0,0 km/h (0 Bft) N 0 0 min 0 UV-I 0 W/m 0,0 km/h (0 Bft)
19.08.2011 22:30 15,0 C 80 % 1019,7 hPa 0,0 mm 0,0 km/h (0 Bft) N 0 0 min 0 UV-I 0 W/m 0,0 km/h (0 Bft)
19.08.2011 22:40 14,8 C 81 % 1019,8 hPa 0,0 mm 0,0 km/h (0 Bft) N 0 0 min 0 UV-I 0 W/m 0,0 km/h (0 Bft)
19.08.2011 22:50 14,5 C 82 % 1019,8 hPa 0,0 mm 0,0 km/h (0 Bft) N 0 0 min 0 UV-I 0 W/m 0,0 km/h (0 Bft)
19.08.2011 23:00 14,2 C 83 % 1019,8 hPa 0,0 mm 0,0 km/h (0 Bft) N 0 0 min 0 UV-I 0 W/m 0,0 km/h (0 Bft)
19.08.2011 23:10 13,8 C 84 % 1019,8 hPa 0,0 mm 0,0 km/h (0 Bft) W 270 0 min 0 UV-I 0 W/m 1,6 km/h (1 Bft)
19.08.2011 23:20 13,7 C 85 % 1019,8 hPa 0,0 mm 0,0 km/h (0 Bft) N 0 0 min 0 UV-I 0 W/m 0,0 km/h (0 Bft)
19.08.2011 23:30 13,6 C 85 % 1019,8 hPa 0,0 mm 0,0 km/h (0 Bft) W 270 0 min 0 UV-I 0 W/m 1,6 km/h (1 Bft)
19.08.2011 23:40 13,7 C 85 % 1019,9 hPa 0,0 mm 0,0 km/h (0 Bft) N 0 0 min 0 UV-I 0 W/m 0,0 km/h (0 Bft)
19.08.2011 23:50 13,6 C 85 % 1019,9 hPa 0,0 mm 0,0 km/h (0 Bft) N 0 0 min 0 UV-I 0 W/m 0,0 km/h (0 Bft)
_ Min-Zeit 23:50 17:10 02:20 - 02:30 - - - - - 04:50
Minimum _ 13,4 C 59 % 1007,9 hPa - 0,0 km/h (0 Bft) - - - - - 0,0 km/h (0 Bft)
_ Max-Zeit 15:30 00:10 23:40 06:50 15:40 - - 06:30 15:00 15:30 17:10
Maximum _ 20,5 C 93 % 1019,9 hPa 0,8 mm 11,3 km/h
W (2 Bft)
- - 10 min 6 UV-I 960 W/m 30,6 km/h
W (5 Bft)
Durchschnitt _ 18,2 C 81 % 1013,7 hPa #3,0 mm 4,1 km/h (1 Bft) W - #4:50 h 2 UV-I 242 W/m 13,5 km/h (3 Bft)